Time;durP1;ratioP1;P1;durP2;ratioP2;P2;SDS_P1;SDS_P2;PMS_P1;PMS_P2;Temp;Humidity;BMP_temperature;BMP_pressure;BME280_temperature;BME280_humidity;BME280_pressure;Samples;Min_cycle;Max_cycle;Signal;HPM_P1;HPM_P2
2022/06/05 00:00:06;;;;;;;9.45;8.15;;;23.30;92.00;;;;;;5007540;28;20030;-70
2022/06/05 00:02:45;;;;;;;9.60;8.68;;;23.20;91.70;;;;;;5012065;28;20030;-65
2022/06/05 00:05:46;;;;;;;9.63;8.40;;;23.20;91.60;;;;;;5012207;28;20503;-65
2022/06/05 00:08:25;;;;;;;9.98;8.30;;;23.20;91.60;;;;;;5008050;28;20184;-65
2022/06/05 00:10:58;;;;;;;9.38;8.48;;;23.10;91.50;;;;;;5011854;28;20050;-66
2022/06/05 00:13:29;;;;;;;9.30;8.25;;;23.00;91.30;;;;;;5011014;28;20471;-65
2022/06/05 00:15:55;;;;;;;9.40;8.50;;;23.10;91.30;;;;;;5010190;28;20033;-65
2022/06/05 00:18:21;;;;;;;8.70;8.00;;;23.10;91.50;;;;;;5011722;28;20037;-65
2022/06/05 00:20:47;;;;;;;9.50;8.73;;;23.10;91.70;;;;;;5001266;28;20113;-65
2022/06/05 00:23:13;;;;;;;10.15;9.00;;;23.10;91.30;;;;;;4997662;28;20463;-65
2022/06/05 00:25:59;;;;;;;10.45;9.25;;;23.10;91.40;;;;;;5011516;28;20038;-65
2022/06/05 00:28:39;;;;;;;10.30;9.38;;;23.00;91.00;;;;;;4993893;28;20034;-65
2022/06/05 00:31:54;;;;;;;9.48;8.55;;;23.00;91.20;;;;;;5008622;28;20434;-65
2022/06/05 00:34:21;;;;;;;9.77;8.95;;;23.00;91.20;;;;;;4958626;28;20039;-65
2022/06/05 00:36:55;;;;;;;10.40;9.20;;;23.00;91.30;;;;;;5014977;28;20422;-65
2022/06/05 00:39:50;;;;;;;10.15;9.15;;;23.00;91.30;;;;;;4996952;28;20025;-69
2022/06/05 00:42:19;;;;;;;10.60;9.50;;;22.90;91.20;;;;;;5014918;28;20030;-70
2022/06/05 00:44:51;;;;;;;9.90;9.10;;;22.90;91.60;;;;;;5014690;28;20044;-65
2022/06/05 00:47:21;;;;;;;10.63;9.50;;;22.90;91.50;;;;;;5014931;28;20022;-66
2022/06/05 00:49:56;;;;;;;11.30;10.18;;;22.90;91.70;;;;;;5014801;28;20026;-65
2022/06/05 00:52:24;;;;;;;11.32;10.20;;;22.90;91.70;;;;;;5014598;28;20108;-65
2022/06/05 00:54:50;;;;;;;11.30;10.27;;;22.90;91.70;;;;;;4997202;28;20026;-65
2022/06/05 00:57:16;;;;;;;10.00;9.20;;;22.80;91.40;;;;;;5014842;28;20030;-65
2022/06/05 00:59:45;;;;;;;11.77;10.52;;;22.80;91.50;;;;;;5014191;28;20025;-66
2022/06/05 01:02:12;;;;;;;11.77;10.73;;;22.80;91.40;;;;;;4976789;28;1103721;-64
2022/06/05 01:04:42;;;;;;;11.50;10.40;;;22.70;91.50;;;;;;4997642;28;20033;-65
2022/06/05 01:07:08;;;;;;;13.02;11.73;;;22.70;91.50;;;;;;5015574;28;20036;-67
2022/06/05 01:09:34;;;;;;;12.70;11.60;;;22.70;91.40;;;;;;5015850;28;20061;-70
2022/06/05 01:12:08;;;;;;;12.25;11.13;;;22.70;91.40;;;;;;5015648;28;20030;-65
2022/06/05 01:15:08;;;;;;;16.98;11.77;;;22.70;91.60;;;;;;5015178;28;20029;-65
2022/06/05 01:18:05;;;;;;;13.20;11.93;;;22.70;91.50;;;;;;5015484;28;20065;-66
2022/06/05 01:20:55;;;;;;;11.55;10.55;;;22.60;91.40;;;;;;5015099;28;20028;-69
2022/06/05 01:23:58;;;;;;;12.35;11.35;;;22.60;91.60;;;;;;5010906;28;20038;-65
2022/06/05 01:26:38;;;;;;;12.95;11.63;;;22.50;91.50;;;;;;5003914;28;20035;-65
2022/06/05 01:29:12;;;;;;;12.05;10.98;;;22.50;91.40;;;;;;4992325;28;20032;-70
2022/06/05 01:31:43;;;;;;;16.13;11.40;;;22.60;91.40;;;;;;4994193;28;20088;-65
2022/06/05 01:34:09;;;;;;;12.48;11.27;;;22.50;91.60;;;;;;4995615;28;20026;-66
2022/06/05 01:36:37;;;;;;;12.15;11.05;;;22.50;91.60;;;;;;4995438;28;20033;-66
2022/06/05 01:39:09;;;;;;;11.73;10.38;;;22.60;91.50;;;;;;4995623;28;20026;-66
2022/06/05 01:41:57;;;;;;;10.95;9.95;;;22.50;91.40;;;;;;4994859;28;20038;-70
2022/06/05 01:44:39;;;;;;;11.30;10.40;;;22.50;91.40;;;;;;4995295;28;20034;-65
2022/06/05 01:47:09;;;;;;;10.50;9.63;;;22.40;91.30;;;;;;4994261;28;20062;-65
2022/06/05 01:49:46;;;;;;;11.30;10.10;;;22.40;91.30;;;;;;4995238;28;20030;-65
2022/06/05 01:52:21;;;;;;;12.10;11.07;;;22.40;91.20;;;;;;4995093;28;20101;-66
2022/06/05 01:54:56;;;;;;;11.30;10.40;;;22.40;91.30;;;;;;4995053;28;20033;-66
2022/06/05 01:57:23;;;;;;;11.55;10.55;;;22.40;91.40;;;;;;4994818;28;20022;-67
2022/06/05 01:59:57;;;;;;;11.43;10.43;;;22.40;91.50;;;;;;4994924;28;20022;-65
2022/06/05 02:02:35;;;;;;;12.02;11.02;;;22.40;91.20;;;;;;4994974;28;20507;-66
2022/06/05 02:05:09;;;;;;;11.18;10.27;;;22.40;91.00;;;;;;4994674;28;20488;-67
2022/06/05 02:07:41;;;;;;;12.07;10.95;;;22.30;91.00;;;;;;4994797;28;20022;-66
2022/06/05 02:10:22;;;;;;;11.60;10.70;;;22.30;91.00;;;;;;4994943;28;20038;-66
2022/06/05 02:12:48;;;;;;;11.82;10.75;;;22.30;90.80;;;;;;4996661;28;20038;-66
2022/06/05 02:15:14;;;;;;;12.20;11.10;;;22.30;90.70;;;;;;5013775;28;20113;-65
2022/06/05 02:17:40;;;;;;;11.73;10.68;;;22.30;90.60;;;;;;5013316;28;20064;-65
2022/06/05 02:20:08;;;;;;;12.05;10.95;;;22.20;90.50;;;;;;5012890;28;20456;-65
2022/06/05 02:22:37;;;;;;;10.93;9.82;;;22.20;90.50;;;;;;5013929;28;20475;-66
2022/06/05 02:25:04;;;;;;;10.73;9.82;;;22.20;90.40;;;;;;5013648;28;20045;-66
2022/06/05 02:27:30;;;;;;;11.68;10.68;;;22.20;90.50;;;;;;5013618;28;20030;-66
2022/06/05 02:29:57;;;;;;;11.60;10.63;;;22.20;90.40;;;;;;5013929;28;20080;-65
2022/06/05 02:32:37;;;;;;;10.63;9.75;;;22.20;90.50;;;;;;4996510;28;20345;-65
2022/06/05 02:35:23;;;;;;;11.30;10.20;;;22.20;90.50;;;;;;5014079;28;20033;-66
2022/06/05 02:38:11;;;;;;;11.25;10.05;;;22.10;90.40;;;;;;5013900;28;20431;-66
2022/06/05 02:40:37;;;;;;;10.43;9.52;;;22.10;90.60;;;;;;4996110;28;20076;-65
2022/06/05 02:43:06;;;;;;;12.05;10.73;;;22.10;90.70;;;;;;5013538;28;20018;-65
2022/06/05 02:46:01;;;;;;;16.17;11.18;;;22.00;90.80;;;;;;5013964;28;20033;-65
2022/06/05 02:48:45;;;;;;;11.73;10.63;;;21.90;90.70;;;;;;4996055;28;20060;-64
2022/06/05 02:51:31;;;;;;;11.65;10.45;;;21.80;90.90;;;;;;5013500;28;20017;-69
2022/06/05 02:53:59;;;;;;;11.73;10.68;;;21.80;90.80;;;;;;5013436;28;20045;-65
2022/06/05 02:56:28;;;;;;;12.18;10.38;;;21.80;90.90;;;;;;5013627;28;20449;-65
2022/06/05 02:58:56;;;;;;;11.68;10.50;;;21.80;91.00;;;;;;5013135;28;20068;-65
2022/06/05 03:04:09;;;;;;;11.57;10.43;;;21.60;91.20;;;;;;5013552;28;20036;-65
2022/06/05 03:06:37;;;;;;;11.18;10.18;;;21.70;91.10;;;;;;5013697;28;20125;-65
2022/06/05 03:09:03;;;;;;;13.70;11.85;;;21.70;91.00;;;;;;5012937;28;20026;-70
2022/06/05 03:11:29;;;;;;;11.77;10.68;;;21.70;91.00;;;;;;5013391;28;20057;-68
2022/06/05 03:13:57;;;;;;;12.05;11.05;;;21.70;91.10;;;;;;5013309;28;20071;-65
2022/06/05 03:16:23;;;;;;;12.43;11.25;;;21.70;91.20;;;;;;5013492;28;20076;-66
2022/06/05 03:18:48;;;;;;;12.00;10.10;;;21.60;91.20;;;;;;5012637;28;20026;-66
2022/06/05 03:21:14;;;;;;;13.90;10.70;;;21.60;91.20;;;;;;5013627;28;20226;-69
2022/06/05 03:23:40;;;;;;;11.52;10.35;;;21.70;91.20;;;;;;5012971;28;20106;-65
2022/06/05 03:26:09;;;;;;;11.48;10.48;;;21.70;91.20;;;;;;5013398;28;20076;-65
2022/06/05 03:28:34;;;;;;;12.30;11.13;;;21.60;91.20;;;;;;5013070;28;20050;-65
2022/06/05 03:31:04;;;;;;;11.73;10.70;;;21.50;91.40;;;;;;5013324;28;20030;-65
2022/06/05 03:33:29;;;;;;;11.38;10.27;;;21.40;91.40;;;;;;4995516;28;20026;-66
2022/06/05 03:35:55;;;;;;;11.73;10.70;;;21.40;91.60;;;;;;5013170;28;20045;-65
2022/06/05 03:38:20;;;;;;;11.60;10.45;;;21.30;91.40;;;;;;5012784;28;20026;-65
2022/06/05 03:40:46;;;;;;;12.45;11.38;;;21.30;91.50;;;;;;5013172;28;20040;-67
2022/06/05 03:43:14;;;;;;;11.93;10.82;;;21.40;91.30;;;;;;5013044;28;20026;-64
2022/06/05 03:45:39;;;;;;;12.48;11.38;;;21.30;91.40;;;;;;5013319;28;20042;-70
2022/06/05 03:48:06;;;;;;;11.45;10.55;;;21.40;91.30;;;;;;5012909;28;20032;-65
2022/06/05 03:50:31;;;;;;;11.68;10.60;;;21.40;91.30;;;;;;5012887;28;20065;-64
2022/06/05 03:52:58;;;;;;;13.35;12.02;;;21.50;91.30;;;;;;5012840;28;20061;-69
2022/06/05 03:55:24;;;;;;;13.40;11.00;;;21.40;91.30;;;;;;4995545;28;20464;-66
2022/06/05 03:57:50;;;;;;;11.93;10.82;;;21.40;91.30;;;;;;5013200;28;20095;-64
2022/06/05 04:00:18;;;;;;;12.38;10.73;;;21.40;91.30;;;;;;5012972;28;20472;-65
2022/06/05 04:02:44;;;;;;;12.52;11.38;;;21.40;91.30;;;;;;5012600;28;20030;-65
2022/06/05 04:05:13;;;;;;;13.25;10.90;;;21.40;91.40;;;;;;4979109;28;20040;-66
2022/06/05 04:07:39;;;;;;;11.52;10.63;;;21.30;91.40;;;;;;5012738;28;20030;-65
2022/06/05 04:10:06;;;;;;;12.00;10.90;;;21.40;91.30;;;;;;5014504;28;20045;-65
2022/06/05 04:12:32;;;;;;;14.40;11.65;;;21.40;91.30;;;;;;5016534;28;20010;-65
2022/06/05 04:15:00;;;;;;;11.70;10.52;;;21.40;91.20;;;;;;5016344;28;20386;-65
2022/06/05 04:17:25;;;;;;;12.32;11.20;;;21.30;91.10;;;;;;5016731;28;20471;-65
2022/06/05 04:19:52;;;;;;;12.35;10.60;;;21.40;91.10;;;;;;5016295;28;20105;-66
2022/06/05 04:22:18;;;;;;;11.73;10.55;;;21.40;91.10;;;;;;5016148;28;20026;-66
2022/06/05 04:24:44;;;;;;;11.95;10.73;;;21.40;91.00;;;;;;5016441;28;20449;-70
2022/06/05 04:27:09;;;;;;;11.98;10.73;;;21.30;91.10;;;;;;5016282;28;20427;-65
2022/06/05 04:29:35;;;;;;;11.57;10.48;;;21.30;91.00;;;;;;4998404;28;20049;-64
2022/06/05 04:32:00;;;;;;;11.57;10.57;;;21.30;90.90;;;;;;5016207;28;20029;-68
2022/06/05 04:34:26;;;;;;;11.77;10.68;;;21.30;91.00;;;;;;4998700;28;20022;-66
2022/06/05 04:36:52;;;;;;;10.80;9.70;;;21.20;91.00;;;;;;5015945;28;20022;-66
2022/06/05 04:39:18;;;;;;;11.13;10.23;;;21.20;91.00;;;;;;5015402;28;20030;-65
2022/06/05 04:41:45;;;;;;;11.98;10.85;;;21.30;90.90;;;;;;5016120;28;20033;-65
2022/06/05 04:44:16;;;;;;;12.10;11.02;;;21.30;90.80;;;;;;5016069;28;20106;-65
2022/06/05 04:46:43;;;;;;;11.82;10.63;;;21.30;90.80;;;;;;4998668;28;20080;-66
2022/06/05 04:49:10;;;;;;;12.48;11.27;;;21.30;90.90;;;;;;5015883;28;20014;-67
2022/06/05 04:51:36;;;;;;;11.75;10.50;;;21.30;91.00;;;;;;5015604;28;20057;-66
2022/06/05 04:54:04;;;;;;;12.55;10.75;;;21.30;90.90;;;;;;5015990;28;20029;-65
2022/06/05 04:56:32;;;;;;;11.65;10.55;;;21.30;90.80;;;;;;5015786;28;20058;-70
2022/06/05 04:58:58;;;;;;;11.40;10.40;;;21.40;90.70;;;;;;5015894;28;20022;-65
2022/06/05 05:01:27;;;;;;;11.07;10.00;;;21.30;90.60;;;;;;5008570;28;20072;-66
2022/06/05 05:03:55;;;;;;;11.02;10.13;;;21.20;90.60;;;;;;5003974;28;20030;-66
2022/06/05 05:06:21;;;;;;;11.13;10.13;;;21.20;90.60;;;;;;4995816;28;20484;-64
2022/06/05 05:08:47;;;;;;;10.55;9.45;;;21.30;90.60;;;;;;4996444;28;20502;-64
2022/06/05 05:11:13;;;;;;;10.52;9.52;;;21.30;90.50;;;;;;5006468;28;20026;-65
2022/06/05 05:13:38;;;;;;;10.82;9.70;;;21.30;90.40;;;;;;4998381;28;20033;-64
2022/06/05 05:16:04;;;;;;;11.93;10.82;;;21.20;90.50;;;;;;5010631;28;20503;-64
2022/06/05 05:18:30;;;;;;;11.90;10.20;;;21.20;90.50;;;;;;4995562;28;20138;-64
2022/06/05 05:21:07;;;;;;;11.85;10.60;;;21.20;90.50;;;;;;5006713;28;20022;-65
2022/06/05 05:23:32;;;;;;;11.48;10.38;;;21.20;90.50;;;;;;5008414;28;20030;-64
2022/06/05 05:26:07;;;;;;;10.73;9.75;;;21.10;90.50;;;;;;5007276;28;20045;-64
2022/06/05 05:28:32;;;;;;;12.48;11.25;;;21.10;90.80;;;;;;5013637;28;20029;-65
2022/06/05 05:30:58;;;;;;;11.15;10.05;;;21.10;90.60;;;;;;5010943;28;20387;-64
2022/06/05 05:33:24;;;;;;;11.20;10.20;;;21.10;90.70;;;;;;5013854;28;20374;-64
2022/06/05 05:35:50;;;;;;;11.82;10.73;;;21.10;90.90;;;;;;5014646;28;20426;-65
2022/06/05 05:38:16;;;;;;;11.82;10.63;;;21.10;90.60;;;;;;5012006;28;20068;-65
2022/06/05 05:43:25;;;;;;;12.20;10.80;;;21.20;90.50;;;;;;5011500;28;20044;-64
2022/06/05 05:45:51;;;;;;;11.93;10.68;;;21.10;90.60;;;;;;5016272;28;20037;-64
2022/06/05 05:48:17;;;;;;;10.80;9.80;;;21.10;90.60;;;;;;5014102;28;20021;-66
2022/06/05 05:50:44;;;;;;;14.18;10.48;;;21.10;90.60;;;;;;5014689;28;20033;-66
2022/06/05 05:53:10;;;;;;;11.55;10.27;;;21.10;90.50;;;;;;5013865;28;20014;-67
2022/06/05 05:55:36;;;;;;;12.05;10.57;;;21.10;90.30;;;;;;5013135;28;20116;-64
2022/06/05 05:58:01;;;;;;;11.98;10.77;;;21.20;90.30;;;;;;4996168;28;20080;-67
2022/06/05 06:00:27;;;;;;;11.82;10.70;;;21.20;90.30;;;;;;5003180;28;20443;-66
2022/06/05 06:02:52;;;;;;;12.68;11.38;;;21.20;90.30;;;;;;5014191;28;20026;-68
2022/06/05 06:05:18;;;;;;;13.20;9.90;;;21.10;90.30;;;;;;5013950;28;20465;-66
2022/06/05 06:07:45;;;;;;;11.77;10.60;;;21.20;90.20;;;;;;5013785;28;20025;-67
2022/06/05 06:10:11;;;;;;;11.48;10.48;;;21.20;90.20;;;;;;5014083;28;20061;-64
2022/06/05 06:12:37;;;;;;;11.85;10.68;;;21.20;90.10;;;;;;5014345;28;20109;-68
2022/06/05 06:15:04;;;;;;;12.00;10.77;;;21.20;90.00;;;;;;5013877;28;20089;-65
2022/06/05 06:17:29;;;;;;;12.48;11.38;;;21.20;90.00;;;;;;5013616;28;20137;-66
2022/06/05 06:19:55;;;;;;;11.77;10.68;;;21.20;90.00;;;;;;5005097;28;20037;-65
2022/06/05 06:22:20;;;;;;;11.73;9.70;;;21.30;90.00;;;;;;5012801;28;20022;-65
2022/06/05 06:24:46;;;;;;;12.45;10.50;;;21.30;89.80;;;;;;5015874;28;20065;-64
2022/06/05 06:27:12;;;;;;;11.57;10.52;;;21.30;89.70;;;;;;5020799;28;20083;-65
2022/06/05 06:29:38;;;;;;;13.00;11.05;;;21.30;90.10;;;;;;5013934;28;20033;-65
2022/06/05 06:32:04;;;;;;;11.88;10.85;;;21.30;90.10;;;;;;5013313;28;20040;-65
2022/06/05 06:34:30;;;;;;;11.70;10.60;;;21.30;90.30;;;;;;5013986;28;20037;-64
2022/06/05 06:36:55;;;;;;;12.68;11.38;;;21.30;90.40;;;;;;5014886;28;20033;-65
2022/06/05 06:39:21;;;;;;;11.40;10.30;;;21.30;90.60;;;;;;5033674;28;20498;-65
2022/06/05 06:41:47;;;;;;;12.70;11.52;;;21.40;90.50;;;;;;5033595;28;20033;-65
2022/06/05 06:44:13;;;;;;;11.90;10.85;;;21.40;90.60;;;;;;5015850;28;20392;-67
2022/06/05 06:46:39;;;;;;;12.35;10.43;;;21.40;90.90;;;;;;5019610;28;20092;-65
2022/06/05 06:49:05;;;;;;;12.65;10.25;;;21.40;91.00;;;;;;5013527;28;20073;-65
2022/06/05 06:51:31;;;;;;;12.15;11.05;;;21.40;91.00;;;;;;5010892;28;20029;-66
2022/06/05 06:53:57;;;;;;;12.00;10.88;;;21.40;90.70;;;;;;5004667;28;20085;-67
2022/06/05 06:56:26;;;;;;;12.07;10.88;;;21.40;90.80;;;;;;5010647;28;20391;-66
2022/06/05 06:58:52;;;;;;;13.60;11.68;;;21.40;91.10;;;;;;5007375;28;20494;-68
2022/06/05 07:01:18;;;;;;;13.07;11.70;;;21.50;91.10;;;;;;5013243;28;20030;-64
2022/06/05 07:03:43;;;;;;;12.40;11.23;;;21.50;91.00;;;;;;5012950;28;20036;-64
2022/06/05 07:06:12;;;;;;;10.02;9.13;;;21.40;90.90;;;;;;5012920;28;20514;-66
2022/06/05 07:08:38;;;;;;;11.82;10.93;;;21.50;90.50;;;;;;4996602;28;20033;-66
2022/06/05 07:11:06;;;;;;;11.02;9.98;;;21.50;91.20;;;;;;5010806;28;20030;-68
2022/06/05 07:13:31;;;;;;;10.70;9.73;;;21.50;91.10;;;;;;5013239;28;20030;-69
2022/06/05 07:15:57;;;;;;;5.57;5.07;;;21.50;91.30;;;;;;5012944;28;20029;-69
2022/06/05 07:18:23;;;;;;;7.47;6.63;;;21.50;90.10;;;;;;5012379;28;20541;-67
2022/06/05 07:20:49;;;;;;;9.38;7.50;;;21.60;89.80;;;;;;5013502;28;20368;-66
2022/06/05 07:23:14;;;;;;;6.60;5.53;;;21.60;90.20;;;;;;5012975;28;20498;-68
2022/06/05 07:25:51;;;;;;;7.90;7.10;;;21.60;89.00;;;;;;5011236;28;20034;-69
2022/06/05 07:28:18;;;;;;;13.35;12.05;;;21.70;89.10;;;;;;5012739;28;20021;-66
2022/06/05 07:30:49;;;;;;;10.85;9.27;;;21.70;90.50;;;;;;4995337;28;20026;-69
2022/06/05 07:33:15;;;;;;;10.77;9.77;;;21.70;89.70;;;;;;5012193;28;20030;-69
2022/06/05 07:35:41;;;;;;;13.57;11.27;;;21.80;90.00;;;;;;5012864;28;20032;-67
2022/06/05 07:38:07;;;;;;;12.48;11.23;;;21.80;90.20;;;;;;5011656;28;20471;-69
2022/06/05 07:40:40;;;;;;;11.80;10.70;;;21.80;90.00;;;;;;5013148;28;20033;-67
2022/06/05 07:43:09;;;;;;;13.20;11.95;;;21.90;89.40;;;;;;5013432;28;20367;-64
2022/06/05 07:45:35;;;;;;;12.48;11.32;;;21.80;89.40;;;;;;5016328;28;20032;-68
2022/06/05 07:48:01;;;;;;;12.13;10.98;;;21.90;90.00;;;;;;5017085;28;20490;-65
2022/06/05 07:50:26;;;;;;;13.40;11.50;;;21.90;89.70;;;;;;5017222;28;20026;-65
2022/06/05 07:55:36;;;;;;;11.68;9.25;;;21.90;89.40;;;;;;5014525;28;20048;-67
2022/06/05 07:58:01;;;;;;;13.75;12.48;;;21.90;89.40;;;;;;5014412;28;20109;-69
2022/06/05 08:00:27;;;;;;;13.23;11.98;;;22.00;90.20;;;;;;5012597;28;20084;-69
2022/06/05 08:02:52;;;;;;;12.60;10.77;;;22.00;89.60;;;;;;4998716;28;20125;-65
2022/06/05 08:05:18;;;;;;;12.77;11.68;;;22.00;89.20;;;;;;5015814;28;20033;-65
2022/06/05 08:07:44;;;;;;;12.93;11.75;;;22.00;89.00;;;;;;5016251;28;20040;-64
2022/06/05 08:10:10;;;;;;;13.52;12.13;;;22.00;88.80;;;;;;5016380;28;20034;-64
2022/06/05 08:12:36;;;;;;;13.75;12.48;;;22.00;89.30;;;;;;5010093;28;20138;-67
2022/06/05 08:15:08;;;;;;;13.52;12.13;;;22.00;89.00;;;;;;5011480;28;20026;-64
2022/06/05 08:17:35;;;;;;;13.27;12.00;;;22.00;89.10;;;;;;5003003;28;20027;-68
2022/06/05 08:20:01;;;;;;;15.88;12.63;;;22.10;89.60;;;;;;5007999;28;20060;-65
2022/06/05 08:22:27;;;;;;;13.77;12.48;;;22.10;88.80;;;;;;5001457;28;20057;-64
2022/06/05 08:24:53;;;;;;;14.82;13.32;;;22.10;89.20;;;;;;5011580;28;20580;-65
2022/06/05 08:27:23;;;;;;;13.95;12.65;;;22.10;89.00;;;;;;5017005;28;20053;-65
2022/06/05 08:29:48;;;;;;;14.00;12.48;;;22.10;88.90;;;;;;5013124;28;20037;-69
2022/06/05 08:32:14;;;;;;;13.32;11.93;;;22.10;88.90;;;;;;5014717;28;20093;-68
2022/06/05 08:34:41;;;;;;;14.38;13.05;;;22.10;89.00;;;;;;4996544;28;20121;-65
2022/06/05 08:42:58;;;;;;;13.65;12.45;;;22.10;89.30;;;;;;5010078;28;20092;-64
2022/06/05 08:45:31;;;;;;;14.35;13.05;;;22.10;88.60;;;;;;5009371;28;20034;-68
2022/06/05 08:48:02;;;;;;;13.50;12.23;;;22.10;89.30;;;;;;5013606;28;20138;-67
2022/06/05 08:50:44;;;;;;;13.57;12.10;;;22.20;89.00;;;;;;4993985;28;20120;-68
2022/06/05 08:53:10;;;;;;;;;;;22.20;88.40;;;;;;5015105;28;20026;-65
2022/06/05 08:55:43;;;;;;;10.80;9.35;;;22.20;87.60;;;;;;4986455;28;20259;-69
2022/06/05 08:58:17;;;;;;;12.93;11.52;;;22.20;89.10;;;;;;5013236;28;20029;-68
2022/06/05 09:00:47;;;;;;;14.73;13.20;;;22.20;89.20;;;;;;5011850;28;20030;-70
2022/06/05 09:03:30;;;;;;;14.93;13.43;;;22.20;89.20;;;;;;5013212;28;20029;-69
2022/06/05 09:06:19;;;;;;;14.27;12.98;;;22.20;89.00;;;;;;5010291;28;20135;-69
2022/06/05 09:08:55;;;;;;;15.82;14.35;;;22.20;89.30;;;;;;5010057;28;20522;-69
2022/06/05 09:11:45;;;;;;;15.23;13.73;;;22.30;88.80;;;;;;4999152;28;20514;-66
2022/06/05 09:14:39;;;;;;;15.90;14.30;;;22.30;88.40;;;;;;5008588;28;20034;-66
2022/06/05 09:17:16;;;;;;;16.65;15.05;;;22.30;88.60;;;;;;4988767;28;20064;-70
2022/06/05 09:19:43;;;;;;;13.07;11.98;;;22.30;89.00;;;;;;5003828;28;20022;-69
2022/06/05 09:22:31;;;;;;;13.82;12.43;;;22.30;89.20;;;;;;5010961;28;20034;-68
2022/06/05 09:25:19;;;;;;;14.75;13.35;;;22.30;89.20;;;;;;5002123;28;20051;-70
2022/06/05 09:28:11;;;;;;;15.25;13.77;;;22.30;88.90;;;;;;5007925;28;20112;-71
2022/06/05 09:30:47;;;;;;;14.95;13.73;;;22.30;88.40;;;;;;5009862;28;20055;-64
2022/06/05 09:33:27;;;;;;;16.80;14.07;;;22.30;88.50;;;;;;5007173;28;20018;-67
2022/06/05 09:36:03;;;;;;;16.45;14.95;;;22.30;88.20;;;;;;5006264;28;20202;-70
2022/06/05 09:38:46;;;;;;;15.13;13.73;;;22.30;88.20;;;;;;5004799;28;20033;-69
2022/06/05 09:41:11;;;;;;;;;;;22.40;87.90;;;;;;5003890;28;20186;-65
2022/06/05 09:44:14;;;;;;;15.35;14.05;;;22.30;87.20;;;;;;5009296;28;20022;-68
2022/06/05 09:47:00;;;;;;;16.23;14.73;;;22.30;87.80;;;;;;4987414;28;20038;-70
2022/06/05 09:49:37;;;;;;;17.02;15.40;;;22.30;88.20;;;;;;5001818;28;20038;-63
2022/06/05 09:52:18;;;;;;;16.85;15.00;;;22.30;88.80;;;;;;5004570;28;20022;-66
2022/06/05 09:54:48;;;;;;;15.43;13.85;;;22.30;88.80;;;;;;5002930;28;20022;-66
2022/06/05 10:00:33;;;;;;;13.70;12.30;;;22.30;89.00;;;;;;5005400;28;20079;-67
2022/06/05 10:03:06;;;;;;;16.45;13.93;;;22.30;88.70;;;;;;4999059;28;20117;-72
2022/06/05 10:05:34;;;;;;;16.00;14.40;;;22.30;88.80;;;;;;5007436;28;20069;-72
2022/06/05 10:08:19;;;;;;;16.92;15.32;;;22.40;88.90;;;;;;4994748;28;20085;-70
2022/06/05 10:10:46;;;;;;;15.35;13.82;;;22.40;88.30;;;;;;4998784;28;20384;-71
2022/06/05 10:13:48;;;;;;;18.35;16.08;;;22.40;88.80;;;;;;5009427;28;20030;-71
2022/06/05 10:16:26;;;;;;;17.17;15.68;;;22.30;88.20;;;;;;5008094;28;20061;-75
2022/06/05 10:19:42;;;;;;;13.93;12.73;;;22.30;88.90;;;;;;5006738;28;20086;-71
2022/06/05 10:22:19;;;;;;;14.40;12.98;;;22.40;88.40;;;;;;4979463;28;20042;-70
2022/06/05 10:25:02;;;;;;;16.08;13.90;;;22.40;89.20;;;;;;5008246;28;20033;-68
2022/06/05 10:27:29;;;;;;;15.70;14.10;;;22.40;88.90;;;;;;5010170;28;20383;-71
2022/06/05 10:29:59;;;;;;;16.80;15.18;;;22.40;89.70;;;;;;5009269;28;20087;-68
2022/06/05 10:32:40;;;;;;;17.25;15.57;;;22.40;89.70;;;;;;4997971;28;20030;-71
2022/06/05 10:35:37;;;;;;;16.85;14.75;;;22.40;89.40;;;;;;4985871;28;20387;-71
2022/06/05 10:38:06;;;;;;;20.48;12.75;;;22.40;88.90;;;;;;5003966;28;20076;-71
2022/06/05 10:40:48;;;;;;;17.65;13.82;;;22.40;90.20;;;;;;5012969;28;20042;-71
2022/06/05 10:43:24;;;;;;;18.65;14.07;;;22.40;90.10;;;;;;5009008;28;20029;-68
2022/06/05 10:45:56;;;;;;;17.52;13.23;;;22.40;90.10;;;;;;5005591;28;20041;-69
2022/06/05 10:48:40;;;;;;;15.55;13.95;;;22.40;90.10;;;;;;5008590;28;20057;-67
2022/06/05 10:51:32;;;;;;;16.60;15.05;;;22.40;90.10;;;;;;5002321;28;20541;-66
2022/06/05 10:54:17;;;;;;;17.27;15.45;;;22.50;90.10;;;;;;5010194;28;20034;-68
2022/06/05 10:56:57;;;;;;;17.75;15.90;;;22.40;90.40;;;;;;5007402;28;20026;-68
2022/06/05 10:59:48;;;;;;;17.05;15.50;;;22.40;90.30;;;;;;5011417;28;20060;-66
2022/06/05 11:02:34;;;;;;;18.92;16.98;;;22.40;90.30;;;;;;5001228;28;20065;-67
2022/06/05 11:05:05;;;;;;;18.30;16.38;;;22.40;90.60;;;;;;5003306;28;20386;-65
2022/06/05 11:07:43;;;;;;;16.20;13.67;;;22.40;90.60;;;;;;4992048;28;20033;-65
2022/06/05 11:13:39;;;;;;;18.02;16.23;;;22.40;90.60;;;;;;5003660;28;20108;-64
2022/06/05 11:13:53;;;;;;;18.98;16.95;;;22.40;91.40;;;;;;5008131;28;20033;-64
2022/06/05 11:16:59;;;;;;;19.75;17.65;;;22.40;91.30;;;;;;4980330;28;20124;-67
2022/06/05 11:19:43;;;;;;;20.05;18.25;;;22.40;91.60;;;;;;5003687;28;20099;-67
2022/06/05 11:22:13;;;;;;;18.60;16.75;;;22.40;91.80;;;;;;5011673;28;20049;-66
2022/06/05 11:24:50;;;;;;;20.17;18.10;;;22.40;92.00;;;;;;5009517;28;20038;-67
2022/06/05 11:27:53;;;;;;;19.27;17.48;;;22.40;91.90;;;;;;5011276;28;20022;-67
2022/06/05 11:30:37;;;;;;;20.17;18.33;;;22.40;91.40;;;;;;5010686;28;20179;-68
2022/06/05 11:33:20;;;;;;;20.27;18.25;;;22.40;92.20;;;;;;5002120;28;20076;-67
2022/06/05 11:36:01;;;;;;;19.80;17.92;;;22.40;92.30;;;;;;5007798;28;20034;-65
2022/06/05 11:38:59;;;;;;;15.65;13.98;;;22.40;92.40;;;;;;5007640;28;20116;-64
2022/06/05 11:41:49;;;;;;;18.73;16.60;;;22.40;91.60;;;;;;5006434;28;20426;-64
2022/06/05 11:44:48;;;;;;;13.02;10.18;;;22.40;91.80;;;;;;4958145;28;20512;-65
2022/06/05 11:47:50;;;;;;;16.17;10.93;;;22.40;91.20;;;;;;5012222;28;20116;-65
2022/06/05 11:50:36;;;;;;;10.77;9.48;;;22.30;91.00;;;;;;4980861;28;20035;-65
2022/06/05 11:53:22;;;;;;;13.60;11.65;;;22.40;91.30;;;;;;5011473;28;20034;-66
2022/06/05 11:56:23;;;;;;;15.13;11.15;;;22.40;91.30;;;;;;4993189;28;20022;-66
2022/06/05 11:58:58;;;;;;;13.80;12.38;;;22.30;91.30;;;;;;5011600;28;20025;-67
2022/06/05 12:01:28;;;;;;;15.38;11.68;;;22.40;91.40;;;;;;5012312;28;20022;-65
2022/06/05 12:04:20;;;;;;;11.63;10.00;;;22.40;91.40;;;;;;5011468;28;20034;-65
2022/06/05 12:06:50;;;;;;;16.70;15.10;;;22.40;91.40;;;;;;4996501;28;20527;-67
2022/06/05 12:09:28;;;;;;;18.75;16.90;;;22.40;91.80;;;;;;5011542;28;20464;-64
2022/06/05 12:11:58;;;;;;;20.23;18.42;;;22.40;91.90;;;;;;5010502;28;20471;-65
2022/06/05 12:14:42;;;;;;;16.05;14.45;;;22.40;92.20;;;;;;5010832;28;20480;-65
2022/06/05 12:17:31;;;;;;;12.45;11.15;;;22.40;91.60;;;;;;5002189;28;20029;-67
2022/06/05 12:20:00;;;;;;;11.90;10.70;;;22.40;91.40;;;;;;5001453;28;20467;-65
2022/06/05 12:22:38;;;;;;;17.42;14.40;;;22.40;91.40;;;;;;5003864;28;20112;-64
2022/06/05 12:25:17;;;;;;;13.90;11.65;;;22.30;91.50;;;;;;5003199;28;20391;-67
2022/06/05 12:27:52;;;;;;;11.38;10.38;;;22.30;91.50;;;;;;4987350;28;20030;-68
2022/06/05 12:30:39;;;;;;;14.15;12.77;;;22.40;91.30;;;;;;5005287;28;20455;-68
2022/06/05 12:33:16;;;;;;;11.07;9.45;;;22.40;91.40;;;;;;5006074;28;20014;-68
2022/06/05 12:35:46;;;;;;;10.43;9.50;;;22.40;91.30;;;;;;4999760;28;20556;-68
2022/06/05 12:38:35;;;;;;;13.70;11.00;;;22.30;91.40;;;;;;5008699;28;20030;-68
2022/06/05 12:41:13;;;;;;;15.82;14.20;;;22.30;91.20;;;;;;5006827;28;20030;-68
2022/06/05 12:43:56;;;;;;;14.75;13.25;;;22.30;91.30;;;;;;5008337;28;20032;-68
2022/06/05 12:46:33;;;;;;;19.60;17.77;;;22.30;91.40;;;;;;5003240;28;20483;-68
2022/06/05 12:49:25;;;;;;;21.95;19.75;;;22.30;92.00;;;;;;4987476;28;20040;-65
2022/06/05 12:52:19;;;;;;;18.13;16.20;;;22.30;92.00;;;;;;5003181;28;20033;-65
2022/06/05 12:54:51;;;;;;;19.30;17.30;;;22.30;91.80;;;;;;5007243;28;20037;-67
2022/06/05 12:57:26;;;;;;;12.32;11.20;;;22.30;92.10;;;;;;4985978;28;20080;-65
2022/06/05 13:00:02;;;;;;;12.70;11.23;;;22.30;91.70;;;;;;5008265;28;20025;-67
2022/06/05 13:02:41;;;;;;;17.98;16.27;;;22.30;91.50;;;;;;5002655;28;20041;-66
2022/06/05 13:05:32;;;;;;;22.20;20.10;;;22.30;92.10;;;;;;5008990;28;20026;-68
2022/06/05 13:08:09;;;;;;;25.95;23.45;;;22.30;92.50;;;;;;5001963;28;20147;-67
2022/06/05 13:10:38;;;;;;;23.02;20.73;;;22.20;93.10;;;;;;5003218;28;20076;-68
2022/06/05 13:13:26;;;;;;;27.08;24.40;;;22.20;93.00;;;;;;5010706;28;20038;-69
2022/06/05 13:16:11;;;;;;;26.67;24.08;;;22.20;93.10;;;;;;5005356;28;20025;-67
2022/06/05 13:18:57;;;;;;;25.17;22.75;;;22.20;93.20;;;;;;5003886;28;20117;-67